Neesea Larae — WDG3605 — position and weather

sailwx.info

Track history (hours):
 
Tides and Currents Weather Stations Pressure Air Temp Water Temp Dewpoint Dewpoint Depression Visibility Wind Speed Wind Dir Waves Ship Positions

Neesea Larae

Owner: RONALD WILLIAM COLEMAN AND DENISE LARAE COLEMAN TRUSTREES OF THE COLEMAN LIVING TRUST, SHORELINE, WA. More information available from US FCC via Universal Licensing System and Coast Guard Vessel Documentation Center.

Last reported at 2014-Oct-13 18:35 UTC. Time now 2014-Oct-23 05:18 UTC.
Position N 47°48' W 122°25'.
Warning: this ship's position is 9 days out of date.

Type: Pleasure craft. MMSI: 367527770.

Date/timePositionNaut miles runAvg speedWind from/ knotsBaromVisibWave heightAir tempDewpointWater temp
2014-Oct-13 18:35N 47°48' W 122°25'011.0
2014-Oct-13 18:33N 47°47' W 122°25'0 8.8
2014-Oct-13 18:30N 47°47' W 122°26'12 8.6
2014-Oct-13 17:09N 47°37' W 122°35'3 4.8
2014-Oct-13 16:28N 47°35' W 122°39'  
2014-Oct-10 21:24N 47°35' W 122°39'9 6.8
2014-Oct-10 20:05N 47°43' W 122°33'1 8.8
2014-Oct-10 20:01N 47°44' W 122°33'4 8.6
2014-Oct-10 19:33N 47°45' W 122°27'2 8.5
2014-Oct-10 19:16N 47°47' W 122°25'  
2014-Oct-06 00:29N 47°49' W 122°23'2 5.4
2014-Oct-06 00:11N 47°47' W 122°25'6 9.5
2014-Oct-05 23:33N 47°41' W 122°26'0 8.4
2014-Oct-05 23:31N 47°41' W 122°26'6 5.6
2014-Oct-05 22:31N 47°35' W 122°25'0 0.0
2014-Oct-05 22:31N 47°35' W 122°25'10 1.7
2014-Oct-05 16:33N 47°46' W 122°27'5 5.1
2014-Oct-05 15:33N 47°50' W 122°23'9 9.4
2014-Oct-05 14:33N 47°58' W 122°16'3 0.1
2014-Oct-03 22:04N 48°00' W 122°13'4 6.9
2014-Oct-03 21:33N 47°58' W 122°17'8 8.3
2014-Oct-03 20:33N 47°50' W 122°23'  
Track history (hours):
 
Tides and Currents Weather Stations Pressure Air Temp Water Temp Dewpoint Dewpoint Depression Visibility Wind Speed Wind Dir Waves Ship Positions

Neesea Larae

Owner: RONALD WILLIAM COLEMAN AND DENISE LARAE COLEMAN TRUSTREES OF THE COLEMAN LIVING TRUST, SHORELINE, WA. More information available from US FCC via Universal Licensing System and Coast Guard Vessel Documentation Center.

Last reported at 2014-Oct-13 18:35 UTC. Time now 2014-Oct-23 05:18 UTC.
Position N 47°48' W 122°25'.
Warning: this ship's position is 9 days out of date.

Type: Pleasure craft. MMSI: 367527770.

Date/timePositionNaut miles runAvg speedWind from/ knotsBaromVisibWave heightAir tempDewpointWater temp
2014-Oct-13 18:35N 47°48' W 122°25'011.0
2014-Oct-13 18:33N 47°47' W 122°25'0 8.8
2014-Oct-13 18:30N 47°47' W 122°26'12 8.6
2014-Oct-13 17:09N 47°37' W 122°35'3 4.8
2014-Oct-13 16:28N 47°35' W 122°39'  
2014-Oct-10 21:24N 47°35' W 122°39'9 6.8
2014-Oct-10 20:05N 47°43' W 122°33'1 8.8
2014-Oct-10 20:01N 47°44' W 122°33'4 8.6
2014-Oct-10 19:33N 47°45' W 122°27'2 8.5
2014-Oct-10 19:16N 47°47' W 122°25'  
2014-Oct-06 00:29N 47°49' W 122°23'2 5.4
2014-Oct-06 00:11N 47°47' W 122°25'6 9.5
2014-Oct-05 23:33N 47°41' W 122°26'0 8.4
2014-Oct-05 23:31N 47°41' W 122°26'6 5.6
2014-Oct-05 22:31N 47°35' W 122°25'0 0.0
2014-Oct-05 22:31N 47°35' W 122°25'10 1.7
2014-Oct-05 16:33N 47°46' W 122°27'5 5.1
2014-Oct-05 15:33N 47°50' W 122°23'9 9.4
2014-Oct-05 14:33N 47°58' W 122°16'3 0.1
2014-Oct-03 22:04N 48°00' W 122°13'4 6.9
2014-Oct-03 21:33N 47°58' W 122°17'8 8.3
2014-Oct-03 20:33N 47°50' W 122°23'  

Dump ship's entire track history